sensor_id;sensor_type;location;lat;lon;timestamp;temperature;humidity
3086;DHT22;52812;48.960;9.108;2023-06-01T00:02:02;12.70;99.90
3086;DHT22;52812;48.960;9.108;2023-06-01T00:04:27;12.70;99.90
3086;DHT22;52812;48.960;9.108;2023-06-01T00:06:53;12.70;99.90
3086;DHT22;52812;48.960;9.108;2023-06-01T00:09:18;12.70;99.90
3086;DHT22;52812;48.960;9.108;2023-06-01T00:11:44;12.70;99.90
3086;DHT22;52812;48.960;9.108;2023-06-01T00:14:10;12.70;99.90
3086;DHT22;52812;48.960;9.108;2023-06-01T00:16:35;12.60;99.90
3086;DHT22;52812;48.960;9.108;2023-06-01T00:19:01;12.50;99.90
3086;DHT22;52812;48.960;9.108;2023-06-01T00:21:29;12.70;99.90
3086;DHT22;52812;48.960;9.108;2023-06-01T00:23:56;12.70;99.90
3086;DHT22;52812;48.960;9.108;2023-06-01T00:26:22;12.60;99.90
3086;DHT22;52812;48.960;9.108;2023-06-01T00:28:48;12.50;99.90
3086;DHT22;52812;48.960;9.108;2023-06-01T00:31:13;12.40;99.90
3086;DHT22;52812;48.960;9.108;2023-06-01T00:33:39;12.40;99.90
3086;DHT22;52812;48.960;9.108;2023-06-01T00:36:05;12.30;99.90
3086;DHT22;52812;48.960;9.108;2023-06-01T00:38:30;12.30;99.90
3086;DHT22;52812;48.960;9.108;2023-06-01T00:40:56;12.20;99.90
3086;DHT22;52812;48.960;9.108;2023-06-01T00:43:22;12.30;99.90
3086;DHT22;52812;48.960;9.108;2023-06-01T00:45:48;12.20;99.90
3086;DHT22;52812;48.960;9.108;2023-06-01T00:48:15;12.20;99.90
3086;DHT22;52812;48.960;9.108;2023-06-01T00:50:42;12.20;99.90
3086;DHT22;52812;48.960;9.108;2023-06-01T00:53:18;12.20;99.90
3086;DHT22;52812;48.960;9.108;2023-06-01T00:55:45;12.20;99.90
3086;DHT22;52812;48.960;9.108;2023-06-01T00:58:12;12.10;99.90
3086;DHT22;52812;48.960;9.108;2023-06-01T01:00:38;12.00;99.90
3086;DHT22;52812;48.960;9.108;2023-06-01T01:03:04;12.00;99.90
3086;DHT22;52812;48.960;9.108;2023-06-01T01:05:35;12.00;99.90
3086;DHT22;52812;48.960;9.108;2023-06-01T01:08:18;11.90;99.90
3086;DHT22;52812;48.960;9.108;2023-06-01T01:11:09;11.80;99.90
3086;DHT22;52812;48.960;9.108;2023-06-01T01:13:47;11.70;99.90
3086;DHT22;52812;48.960;9.108;2023-06-01T01:16:30;11.70;99.90
3086;DHT22;52812;48.960;9.108;2023-06-01T01:25:05;11.70;99.90
3086;DHT22;52812;48.960;9.108;2023-06-01T01:28:06;11.60;99.90
3086;DHT22;52812;48.960;9.108;2023-06-01T01:30:37;11.70;99.90
3086;DHT22;52812;48.960;9.108;2023-06-01T01:33:03;11.60;99.90
3086;DHT22;52812;48.960;9.108;2023-06-01T01:35:30;11.50;99.90
3086;DHT22;52812;48.960;9.108;2023-06-01T01:37:57;11.50;99.90
3086;DHT22;52812;48.960;9.108;2023-06-01T01:40:23;11.50;99.90
3086;DHT22;52812;48.960;9.108;2023-06-01T01:42:50;11.40;99.90
3086;DHT22;52812;48.960;9.108;2023-06-01T01:45:17;11.30;99.90
3086;DHT22;52812;48.960;9.108;2023-06-01T01:50:18;11.10;99.90
3086;DHT22;52812;48.960;9.108;2023-06-01T01:52:46;11.00;99.90
3086;DHT22;52812;48.960;9.108;2023-06-01T01:55:14;11.00;99.90
3086;DHT22;52812;48.960;9.108;2023-06-01T01:57:41;11.00;99.90
3086;DHT22;52812;48.960;9.108;2023-06-01T02:00:07;11.00;99.90
3086;DHT22;52812;48.960;9.108;2023-06-01T02:02:33;11.00;99.90
3086;DHT22;52812;48.960;9.108;2023-06-01T02:04:59;11.00;99.90
3086;DHT22;52812;48.960;9.108;2023-06-01T02:07:25;10.90;99.90
3086;DHT22;52812;48.960;9.108;2023-06-01T02:09:50;10.90;99.90
3086;DHT22;52812;48.960;9.108;2023-06-01T02:12:16;10.90;99.90
3086;DHT22;52812;48.960;9.108;2023-06-01T02:14:42;10.80;99.90
3086;DHT22;52812;48.960;9.108;2023-06-01T02:17:07;10.90;99.90
3086;DHT22;52812;48.960;9.108;2023-06-01T02:19:33;10.90;99.90
3086;DHT22;52812;48.960;9.108;2023-06-01T02:21:59;10.90;99.90
3086;DHT22;52812;48.960;9.108;2023-06-01T02:24:24;10.80;99.90
3086;DHT22;52812;48.960;9.108;2023-06-01T02:26:50;10.70;99.90
3086;DHT22;52812;48.960;9.108;2023-06-01T02:29:20;10.60;99.90
3086;DHT22;52812;48.960;9.108;2023-06-01T02:31:48;10.60;99.90
3086;DHT22;52812;48.960;9.108;2023-06-01T02:34:14;10.50;99.90
3086;DHT22;52812;48.960;9.108;2023-06-01T02:36:40;10.50;99.90
3086;DHT22;52812;48.960;9.108;2023-06-01T02:39:06;10.50;99.90
3086;DHT22;52812;48.960;9.108;2023-06-01T02:41:31;10.50;99.90
3086;DHT22;52812;48.960;9.108;2023-06-01T02:43:57;10.50;99.90
3086;DHT22;52812;48.960;9.108;2023-06-01T02:46:22;10.50;99.90
3086;DHT22;52812;48.960;9.108;2023-06-01T02:48:48;10.50;99.90
3086;DHT22;52812;48.960;9.108;2023-06-01T02:51:14;10.50;99.90
3086;DHT22;52812;48.960;9.108;2023-06-01T02:53:42;10.40;99.90
3086;DHT22;52812;48.960;9.108;2023-06-01T02:56:08;10.40;99.90
3086;DHT22;52812;48.960;9.108;2023-06-01T02:58:33;10.40;99.90
3086;DHT22;52812;48.960;9.108;2023-06-01T03:00:59;10.40;99.90
3086;DHT22;52812;48.960;9.108;2023-06-01T03:03:25;10.50;99.90
3086;DHT22;52812;48.960;9.108;2023-06-01T03:05:51;10.50;99.90
3086;DHT22;52812;48.960;9.108;2023-06-01T03:08:16;10.60;99.90
3086;DHT22;52812;48.960;9.108;2023-06-01T03:10:43;10.50;99.90
3086;DHT22;52812;48.960;9.108;2023-06-01T03:13:08;10.40;99.90
3086;DHT22;52812;48.960;9.108;2023-06-01T03:15:34;10.30;99.90
3086;DHT22;52812;48.960;9.108;2023-06-01T03:17:59;10.30;99.90
3086;DHT22;52812;48.960;9.108;2023-06-01T03:20:26;10.40;99.90
3086;DHT22;52812;48.960;9.108;2023-06-01T03:22:52;10.40;99.90
3086;DHT22;52812;48.960;9.108;2023-06-01T03:25:18;10.50;99.90
3086;DHT22;52812;48.960;9.108;2023-06-01T03:27:43;10.50;99.90
3086;DHT22;52812;48.960;9.108;2023-06-01T03:30:09;10.40;99.90
3086;DHT22;52812;48.960;9.108;2023-06-01T03:32:43;10.40;99.90
3086;DHT22;52812;48.960;9.108;2023-06-01T03:35:10;10.40;99.90
3086;DHT22;52812;48.960;9.108;2023-06-01T03:37:37;10.40;99.90
3086;DHT22;52812;48.960;9.108;2023-06-01T03:40:03;10.40;99.90
3086;DHT22;52812;48.960;9.108;2023-06-01T03:42:38;10.50;99.90
3086;DHT22;52812;48.960;9.108;2023-06-01T03:45:04;10.50;99.90
3086;DHT22;52812;48.960;9.108;2023-06-01T03:47:30;10.50;99.90
3086;DHT22;52812;48.960;9.108;2023-06-01T03:49:56;10.60;99.90
3086;DHT22;52812;48.960;9.108;2023-06-01T03:52:23;10.50;99.90
3086;DHT22;52812;48.960;9.108;2023-06-01T03:54:50;10.60;99.90
3086;DHT22;52812;48.960;9.108;2023-06-01T03:57:16;10.70;99.90
3086;DHT22;52812;48.960;9.108;2023-06-01T03:59:41;10.70;99.90
3086;DHT22;52812;48.960;9.108;2023-06-01T04:02:07;10.70;99.90
3086;DHT22;52812;48.960;9.108;2023-06-01T04:04:35;10.80;99.90
3086;DHT22;52812;48.960;9.108;2023-06-01T04:07:01;10.90;99.90
3086;DHT22;52812;48.960;9.108;2023-06-01T04:09:29;10.90;99.90
3086;DHT22;52812;48.960;9.108;2023-06-01T04:11:55;11.00;99.90
3086;DHT22;52812;48.960;9.108;2023-06-01T04:14:20;11.10;99.90
3086;DHT22;52812;48.960;9.108;2023-06-01T04:16:46;11.10;99.90
3086;DHT22;52812;48.960;9.108;2023-06-01T04:19:12;11.20;99.90
3086;DHT22;52812;48.960;9.108;2023-06-01T04:21:37;11.30;99.90
3086;DHT22;52812;48.960;9.108;2023-06-01T04:24:03;11.30;99.90
3086;DHT22;52812;48.960;9.108;2023-06-01T04:26:28;11.30;99.90
3086;DHT22;52812;48.960;9.108;2023-06-01T04:28:59;11.30;99.90
3086;DHT22;52812;48.960;9.108;2023-06-01T04:31:25;11.40;99.90
3086;DHT22;52812;48.960;9.108;2023-06-01T04:33:51;11.60;99.90
3086;DHT22;52812;48.960;9.108;2023-06-01T04:36:22;11.60;99.90
3086;DHT22;52812;48.960;9.108;2023-06-01T04:38:51;11.70;99.90
3086;DHT22;52812;48.960;9.108;2023-06-01T04:41:20;11.80;99.90
3086;DHT22;52812;48.960;9.108;2023-06-01T04:43:47;11.90;99.90
3086;DHT22;52812;48.960;9.108;2023-06-01T04:46:23;11.90;99.90
3086;DHT22;52812;48.960;9.108;2023-06-01T04:48:50;11.90;99.90
3086;DHT22;52812;48.960;9.108;2023-06-01T04:51:17;12.00;99.90
3086;DHT22;52812;48.960;9.108;2023-06-01T04:53:50;12.10;99.90
3086;DHT22;52812;48.960;9.108;2023-06-01T04:56:21;12.20;99.90
3086;DHT22;52812;48.960;9.108;2023-06-01T04:58:51;12.20;99.90
3086;DHT22;52812;48.960;9.108;2023-06-01T05:01:17;12.40;99.90
3086;DHT22;52812;48.960;9.108;2023-06-01T05:03:44;12.50;99.90
3086;DHT22;52812;48.960;9.108;2023-06-01T05:06:11;12.60;99.90
3086;DHT22;52812;48.960;9.108;2023-06-01T05:08:40;12.70;99.90
3086;DHT22;52812;48.960;9.108;2023-06-01T05:11:07;12.90;99.90
3086;DHT22;52812;48.960;9.108;2023-06-01T05:13:37;12.90;99.90
3086;DHT22;52812;48.960;9.108;2023-06-01T05:16:04;13.10;99.90
3086;DHT22;52812;48.960;9.108;2023-06-01T05:18:31;13.30;99.90
3086;DHT22;52812;48.960;9.108;2023-06-01T05:20:56;13.40;99.90
3086;DHT22;52812;48.960;9.108;2023-06-01T05:23:24;13.50;99.90
3086;DHT22;52812;48.960;9.108;2023-06-01T05:25:49;13.50;99.90
3086;DHT22;52812;48.960;9.108;2023-06-01T05:28:15;13.60;99.90
3086;DHT22;52812;48.960;9.108;2023-06-01T05:30:41;13.70;99.90
3086;DHT22;52812;48.960;9.108;2023-06-01T05:33:07;13.90;99.90
3086;DHT22;52812;48.960;9.108;2023-06-01T05:35:32;14.00;99.90
3086;DHT22;52812;48.960;9.108;2023-06-01T05:37:57;14.20;99.90
3086;DHT22;52812;48.960;9.108;2023-06-01T05:40:23;14.30;99.90
3086;DHT22;52812;48.960;9.108;2023-06-01T05:42:49;14.40;99.90
3086;DHT22;52812;48.960;9.108;2023-06-01T05:45:14;14.60;99.90
3086;DHT22;52812;48.960;9.108;2023-06-01T05:47:40;14.70;99.90
3086;DHT22;52812;48.960;9.108;2023-06-01T05:50:06;14.80;99.90
3086;DHT22;52812;48.960;9.108;2023-06-01T05:52:31;15.00;99.90
3086;DHT22;52812;48.960;9.108;2023-06-01T05:54:57;15.20;99.90
3086;DHT22;52812;48.960;9.108;2023-06-01T05:57:23;15.50;99.90
3086;DHT22;52812;48.960;9.108;2023-06-01T05:59:48;16.10;99.90
3086;DHT22;52812;48.960;9.108;2023-06-01T06:02:14;17.10;99.90
3086;DHT22;52812;48.960;9.108;2023-06-01T06:04:40;18.10;99.90
3086;DHT22;52812;48.960;9.108;2023-06-01T06:07:05;18.80;99.90
3086;DHT22;52812;48.960;9.108;2023-06-01T06:09:31;19.80;99.90
3086;DHT22;52812;48.960;9.108;2023-06-01T06:11:57;20.40;99.90
3086;DHT22;52812;48.960;9.108;2023-06-01T06:14:23;20.80;99.90
3086;DHT22;52812;48.960;9.108;2023-06-01T06:16:49;21.20;99.90
3086;DHT22;52812;48.960;9.108;2023-06-01T06:19:15;21.50;99.90
3086;DHT22;52812;48.960;9.108;2023-06-01T06:21:43;21.70;99.90
3086;DHT22;52812;48.960;9.108;2023-06-01T06:24:09;21.80;99.90
3086;DHT22;52812;48.960;9.108;2023-06-01T06:26:34;22.10;99.90
3086;DHT22;52812;48.960;9.108;2023-06-01T06:29:00;22.40;99.90
3086;DHT22;52812;48.960;9.108;2023-06-01T06:31:26;22.30;99.90
3086;DHT22;52812;48.960;9.108;2023-06-01T06:33:52;22.40;99.90
3086;DHT22;52812;48.960;9.108;2023-06-01T06:36:17;22.60;99.90
3086;DHT22;52812;48.960;9.108;2023-06-01T06:38:44;22.50;99.90
3086;DHT22;52812;48.960;9.108;2023-06-01T06:41:10;22.70;99.90
3086;DHT22;52812;48.960;9.108;2023-06-01T06:43:35;23.30;99.90
3086;DHT22;52812;48.960;9.108;2023-06-01T06:46:01;23.50;99.90
3086;DHT22;52812;48.960;9.108;2023-06-01T06:48:27;23.60;99.90
3086;DHT22;52812;48.960;9.108;2023-06-01T06:50:53;23.90;99.90
3086;DHT22;52812;48.960;9.108;2023-06-01T06:53:18;24.00;99.90
3086;DHT22;52812;48.960;9.108;2023-06-01T06:55:44;24.30;99.90
3086;DHT22;52812;48.960;9.108;2023-06-01T06:58:10;24.10;99.90
3086;DHT22;52812;48.960;9.108;2023-06-01T07:00:36;24.30;99.90
3086;DHT22;52812;48.960;9.108;2023-06-01T07:03:02;25.00;99.90
3086;DHT22;52812;48.960;9.108;2023-06-01T07:05:28;25.20;99.90
3086;DHT22;52812;48.960;9.108;2023-06-01T07:07:54;25.80;99.90
3086;DHT22;52812;48.960;9.108;2023-06-01T07:10:20;25.70;99.90
3086;DHT22;52812;48.960;9.108;2023-06-01T07:12:46;25.00;99.90
3086;DHT22;52812;48.960;9.108;2023-06-01T07:15:12;24.80;99.90
3086;DHT22;52812;48.960;9.108;2023-06-01T07:17:37;25.30;99.90
3086;DHT22;52812;48.960;9.108;2023-06-01T07:20:04;26.00;99.90
3086;DHT22;52812;48.960;9.108;2023-06-01T07:22:33;26.20;99.90
3086;DHT22;52812;48.960;9.108;2023-06-01T07:24:58;26.30;99.90
3086;DHT22;52812;48.960;9.108;2023-06-01T07:27:24;26.00;99.90
3086;DHT22;52812;48.960;9.108;2023-06-01T07:29:50;26.00;99.90
3086;DHT22;52812;48.960;9.108;2023-06-01T07:32:22;26.20;99.90
3086;DHT22;52812;48.960;9.108;2023-06-01T07:34:48;26.20;99.90
3086;DHT22;52812;48.960;9.108;2023-06-01T07:37:13;26.30;99.90
3086;DHT22;52812;48.960;9.108;2023-06-01T07:39:39;26.40;99.50
3086;DHT22;52812;48.960;9.108;2023-06-01T07:42:05;26.00;99.90
3086;DHT22;52812;48.960;9.108;2023-06-01T07:44:30;26.10;99.90
3086;DHT22;52812;48.960;9.108;2023-06-01T07:46:56;26.60;99.90
3086;DHT22;52812;48.960;9.108;2023-06-01T07:49:22;26.40;98.90
3086;DHT22;52812;48.960;9.108;2023-06-01T07:51:47;26.30;98.70
3086;DHT22;52812;48.960;9.108;2023-06-01T07:54:14;26.50;98.60
3086;DHT22;52812;48.960;9.108;2023-06-01T07:56:40;26.70;96.60
3086;DHT22;52812;48.960;9.108;2023-06-01T07:59:07;25.90;96.90
3086;DHT22;52812;48.960;9.108;2023-06-01T08:01:34;26.30;99.30
3086;DHT22;52812;48.960;9.108;2023-06-01T08:03:59;26.40;98.80
3086;DHT22;52812;48.960;9.108;2023-06-01T08:06:27;26.10;99.20
3086;DHT22;52812;48.960;9.108;2023-06-01T08:08:52;26.50;99.40
3086;DHT22;52812;48.960;9.108;2023-06-01T08:11:18;26.70;97.90
3086;DHT22;52812;48.960;9.108;2023-06-01T08:13:44;26.60;97.90
3086;DHT22;52812;48.960;9.108;2023-06-01T08:16:13;26.60;98.80
3086;DHT22;52812;48.960;9.108;2023-06-01T08:18:39;26.50;99.20
3086;DHT22;52812;48.960;9.108;2023-06-01T08:21:04;26.50;98.90
3086;DHT22;52812;48.960;9.108;2023-06-01T08:23:30;26.60;98.30
3086;DHT22;52812;48.960;9.108;2023-06-01T08:25:56;26.80;98.90
3086;DHT22;52812;48.960;9.108;2023-06-01T08:28:21;26.70;98.50
3086;DHT22;52812;48.960;9.108;2023-06-01T08:30:47;27.20;97.50
3086;DHT22;52812;48.960;9.108;2023-06-01T08:33:12;26.90;97.80
3086;DHT22;52812;48.960;9.108;2023-06-01T08:35:38;26.50;97.50
3086;DHT22;52812;48.960;9.108;2023-06-01T08:38:04;26.30;98.30
3086;DHT22;52812;48.960;9.108;2023-06-01T08:40:30;26.20;97.10
3086;DHT22;52812;48.960;9.108;2023-06-01T08:43:05;26.50;98.00
3086;DHT22;52812;48.960;9.108;2023-06-01T08:45:32;26.60;99.40
3086;DHT22;52812;48.960;9.108;2023-06-01T08:47:58;26.90;98.60
3086;DHT22;52812;48.960;9.108;2023-06-01T08:50:26;26.90;99.60
3086;DHT22;52812;48.960;9.108;2023-06-01T08:52:56;27.10;97.10
3086;DHT22;52812;48.960;9.108;2023-06-01T08:55:24;26.60;95.50
3086;DHT22;52812;48.960;9.108;2023-06-01T08:57:49;26.60;96.00
3086;DHT22;52812;48.960;9.108;2023-06-01T09:00:17;26.30;95.10
3086;DHT22;52812;48.960;9.108;2023-06-01T09:02:43;26.40;96.20
3086;DHT22;52812;48.960;9.108;2023-06-01T09:05:09;26.20;96.70
3086;DHT22;52812;48.960;9.108;2023-06-01T09:07:37;25.70;98.70
3086;DHT22;52812;48.960;9.108;2023-06-01T09:10:03;25.70;96.50
3086;DHT22;52812;48.960;9.108;2023-06-01T09:12:29;25.50;96.50
3086;DHT22;52812;48.960;9.108;2023-06-01T09:15:11;25.80;96.90
3086;DHT22;52812;48.960;9.108;2023-06-01T09:17:38;25.80;97.90
3086;DHT22;52812;48.960;9.108;2023-06-01T09:20:05;25.80;98.60
3086;DHT22;52812;48.960;9.108;2023-06-01T09:22:42;25.50;96.70
3086;DHT22;52812;48.960;9.108;2023-06-01T09:25:09;25.10;97.30
3086;DHT22;52812;48.960;9.108;2023-06-01T09:27:49;25.10;97.00
3086;DHT22;52812;48.960;9.108;2023-06-01T09:30:16;25.20;97.60
3086;DHT22;52812;48.960;9.108;2023-06-01T09:32:42;25.30;97.40
3086;DHT22;52812;48.960;9.108;2023-06-01T09:35:10;25.10;97.00
3086;DHT22;52812;48.960;9.108;2023-06-01T09:37:37;25.30;96.70
3086;DHT22;52812;48.960;9.108;2023-06-01T09:40:19;25.20;97.30
3086;DHT22;52812;48.960;9.108;2023-06-01T09:42:45;25.10;96.60
3086;DHT22;52812;48.960;9.108;2023-06-01T09:45:22;25.00;97.20
3086;DHT22;52812;48.960;9.108;2023-06-01T09:47:48;25.00;96.90
3086;DHT22;52812;48.960;9.108;2023-06-01T09:50:33;25.40;97.90
3086;DHT22;52812;48.960;9.108;2023-06-01T09:52:59;25.80;98.40
3086;DHT22;52812;48.960;9.108;2023-06-01T09:55:25;26.10;98.90
3086;DHT22;52812;48.960;9.108;2023-06-01T09:57:51;26.00;95.70
3086;DHT22;52812;48.960;9.108;2023-06-01T10:00:23;25.80;97.20
3086;DHT22;52812;48.960;9.108;2023-06-01T10:02:51;25.90;97.50
3086;DHT22;52812;48.960;9.108;2023-06-01T10:05:17;25.80;95.80
3086;DHT22;52812;48.960;9.108;2023-06-01T10:07:44;25.70;96.90
3086;DHT22;52812;48.960;9.108;2023-06-01T10:10:14;25.90;96.80
3086;DHT22;52812;48.960;9.108;2023-06-01T10:12:40;25.60;94.60
3086;DHT22;52812;48.960;9.108;2023-06-01T10:15:06;25.60;94.80
3086;DHT22;52812;48.960;9.108;2023-06-01T10:17:33;25.50;96.50
3086;DHT22;52812;48.960;9.108;2023-06-01T10:20:01;25.60;95.70
3086;DHT22;52812;48.960;9.108;2023-06-01T10:22:27;25.50;96.30
3086;DHT22;52812;48.960;9.108;2023-06-01T10:24:58;25.20;95.60
3086;DHT22;52812;48.960;9.108;2023-06-01T10:27:51;25.30;96.60
3086;DHT22;52812;48.960;9.108;2023-06-01T10:30:17;25.30;97.10
3086;DHT22;52812;48.960;9.108;2023-06-01T10:32:44;25.20;95.30
3086;DHT22;52812;48.960;9.108;2023-06-01T10:40:39;25.40;96.60
3086;DHT22;52812;48.960;9.108;2023-06-01T10:43:05;25.50;96.70
3086;DHT22;52812;48.960;9.108;2023-06-01T10:45:39;25.40;97.30
3086;DHT22;52812;48.960;9.108;2023-06-01T10:48:08;25.60;96.90
3086;DHT22;52812;48.960;9.108;2023-06-01T10:50:36;25.30;95.80
3086;DHT22;52812;48.960;9.108;2023-06-01T10:53:29;25.00;95.20
3086;DHT22;52812;48.960;9.108;2023-06-01T10:56:18;25.10;95.10
3086;DHT22;52812;48.960;9.108;2023-06-01T10:58:46;25.00;94.80
3086;DHT22;52812;48.960;9.108;2023-06-01T11:01:18;24.80;95.00
3086;DHT22;52812;48.960;9.108;2023-06-01T11:03:46;24.90;94.50
3086;DHT22;52812;48.960;9.108;2023-06-01T11:06:25;24.70;95.90
3086;DHT22;52812;48.960;9.108;2023-06-01T11:08:53;24.70;96.10
3086;DHT22;52812;48.960;9.108;2023-06-01T11:11:19;24.80;95.90
3086;DHT22;52812;48.960;9.108;2023-06-01T11:14:05;25.00;96.00
3086;DHT22;52812;48.960;9.108;2023-06-01T11:16:32;25.10;95.20
3086;DHT22;52812;48.960;9.108;2023-06-01T11:19:00;25.10;95.60
3086;DHT22;52812;48.960;9.108;2023-06-01T11:21:33;25.10;95.20
3086;DHT22;52812;48.960;9.108;2023-06-01T11:24:07;25.10;95.10
3086;DHT22;52812;48.960;9.108;2023-06-01T11:26:36;25.30;96.00
3086;DHT22;52812;48.960;9.108;2023-06-01T11:29:16;25.30;96.00
3086;DHT22;52812;48.960;9.108;2023-06-01T11:31:53;25.40;96.30
3086;DHT22;52812;48.960;9.108;2023-06-01T11:34:25;25.30;95.50
3086;DHT22;52812;48.960;9.108;2023-06-01T11:36:51;25.20;94.30
3086;DHT22;52812;48.960;9.108;2023-06-01T11:39:19;25.00;96.00
3086;DHT22;52812;48.960;9.108;2023-06-01T11:41:50;25.10;95.00
3086;DHT22;52812;48.960;9.108;2023-06-01T11:44:16;25.10;95.50
3086;DHT22;52812;48.960;9.108;2023-06-01T11:46:52;25.20;95.50
3086;DHT22;52812;48.960;9.108;2023-06-01T11:49:18;25.00;94.30
3086;DHT22;52812;48.960;9.108;2023-06-01T11:51:43;25.10;94.80
3086;DHT22;52812;48.960;9.108;2023-06-01T11:54:09;25.10;94.20
3086;DHT22;52812;48.960;9.108;2023-06-01T11:56:35;25.20;93.50
3086;DHT22;52812;48.960;9.108;2023-06-01T11:59:03;25.30;94.70
3086;DHT22;52812;48.960;9.108;2023-06-01T12:01:42;25.20;95.00
3086;DHT22;52812;48.960;9.108;2023-06-01T12:04:15;25.20;95.20
3086;DHT22;52812;48.960;9.108;2023-06-01T12:06:41;25.50;94.20
3086;DHT22;52812;48.960;9.108;2023-06-01T12:09:07;25.20;93.90
3086;DHT22;52812;48.960;9.108;2023-06-01T12:11:33;25.10;93.80
3086;DHT22;52812;48.960;9.108;2023-06-01T12:14:00;25.00;94.30
3086;DHT22;52812;48.960;9.108;2023-06-01T12:19:17;25.30;92.90
3086;DHT22;52812;48.960;9.108;2023-06-01T12:21:50;25.50;93.00
3086;DHT22;52812;48.960;9.108;2023-06-01T12:24:25;25.50;92.90
3086;DHT22;52812;48.960;9.108;2023-06-01T12:26:53;25.50;93.50
3086;DHT22;52812;48.960;9.108;2023-06-01T12:29:40;25.70;91.90
3086;DHT22;52812;48.960;9.108;2023-06-01T12:32:12;25.50;91.80
3086;DHT22;52812;48.960;9.108;2023-06-01T12:35:02;25.40;93.00
3086;DHT22;52812;48.960;9.108;2023-06-01T12:37:30;25.50;90.80
3086;DHT22;52812;48.960;9.108;2023-06-01T12:39:56;25.40;92.70
3086;DHT22;52812;48.960;9.108;2023-06-01T12:42:40;25.40;92.20
3086;DHT22;52812;48.960;9.108;2023-06-01T12:45:09;25.50;90.80
3086;DHT22;52812;48.960;9.108;2023-06-01T12:47:40;25.60;90.00
3086;DHT22;52812;48.960;9.108;2023-06-01T12:50:10;25.70;91.10
3086;DHT22;52812;48.960;9.108;2023-06-01T12:52:37;25.60;89.70
3086;DHT22;52812;48.960;9.108;2023-06-01T12:55:03;25.60;90.20
3086;DHT22;52812;48.960;9.108;2023-06-01T12:57:30;25.80;90.10
3086;DHT22;52812;48.960;9.108;2023-06-01T12:59:56;25.40;89.10
3086;DHT22;52812;48.960;9.108;2023-06-01T13:02:22;25.60;91.00
3086;DHT22;52812;48.960;9.108;2023-06-01T13:04:49;25.60;89.30
3086;DHT22;52812;48.960;9.108;2023-06-01T13:07:15;25.80;87.50
3086;DHT22;52812;48.960;9.108;2023-06-01T13:09:41;25.70;90.40
3086;DHT22;52812;48.960;9.108;2023-06-01T13:12:09;25.60;89.80
3086;DHT22;52812;48.960;9.108;2023-06-01T13:14:36;25.70;89.80
3086;DHT22;52812;48.960;9.108;2023-06-01T13:17:01;25.50;89.20
3086;DHT22;52812;48.960;9.108;2023-06-01T13:19:30;25.50;92.10
3086;DHT22;52812;48.960;9.108;2023-06-01T13:21:55;25.60;90.80
3086;DHT22;52812;48.960;9.108;2023-06-01T13:24:21;25.60;91.00
3086;DHT22;52812;48.960;9.108;2023-06-01T13:26:47;25.40;91.20
3086;DHT22;52812;48.960;9.108;2023-06-01T13:29:16;25.50;90.60
3086;DHT22;52812;48.960;9.108;2023-06-01T13:31:42;25.60;91.00
3086;DHT22;52812;48.960;9.108;2023-06-01T13:34:07;25.50;90.60
3086;DHT22;52812;48.960;9.108;2023-06-01T13:36:33;25.50;91.60
3086;DHT22;52812;48.960;9.108;2023-06-01T13:39:00;25.40;91.60
3086;DHT22;52812;48.960;9.108;2023-06-01T13:41:26;25.70;92.20
3086;DHT22;52812;48.960;9.108;2023-06-01T13:43:52;25.80;91.40
3086;DHT22;52812;48.960;9.108;2023-06-01T13:46:17;25.90;91.90
3086;DHT22;52812;48.960;9.108;2023-06-01T13:48:43;26.00;90.80
3086;DHT22;52812;48.960;9.108;2023-06-01T13:51:09;25.80;89.80
3086;DHT22;52812;48.960;9.108;2023-06-01T13:53:35;25.70;91.20
3086;DHT22;52812;48.960;9.108;2023-06-01T13:56:01;25.80;90.80
3086;DHT22;52812;48.960;9.108;2023-06-01T13:58:27;25.60;88.40
3086;DHT22;52812;48.960;9.108;2023-06-01T14:00:53;25.40;89.80
3086;DHT22;52812;48.960;9.108;2023-06-01T14:03:18;25.20;90.00
3086;DHT22;52812;48.960;9.108;2023-06-01T14:05:44;25.40;89.00
3086;DHT22;52812;48.960;9.108;2023-06-01T14:08:10;25.60;88.30
3086;DHT22;52812;48.960;9.108;2023-06-01T14:10:35;25.70;89.40
3086;DHT22;52812;48.960;9.108;2023-06-01T14:13:01;25.70;88.90
3086;DHT22;52812;48.960;9.108;2023-06-01T14:15:27;25.80;87.70
3086;DHT22;52812;48.960;9.108;2023-06-01T14:17:53;25.80;86.70
3086;DHT22;52812;48.960;9.108;2023-06-01T14:20:19;25.70;90.50
3086;DHT22;52812;48.960;9.108;2023-06-01T14:22:44;25.80;87.50
3086;DHT22;52812;48.960;9.108;2023-06-01T14:25:11;25.70;87.10
3086;DHT22;52812;48.960;9.108;2023-06-01T14:27:38;25.60;89.20
3086;DHT22;52812;48.960;9.108;2023-06-01T14:30:05;25.70;85.50
3086;DHT22;52812;48.960;9.108;2023-06-01T14:32:31;25.50;85.50
3086;DHT22;52812;48.960;9.108;2023-06-01T14:34:56;25.50;87.70
3086;DHT22;52812;48.960;9.108;2023-06-01T14:37:22;25.70;88.50
3086;DHT22;52812;48.960;9.108;2023-06-01T14:39:47;25.80;86.90
3086;DHT22;52812;48.960;9.108;2023-06-01T14:42:15;25.50;87.00
3086;DHT22;52812;48.960;9.108;2023-06-01T14:44:41;25.50;87.30
3086;DHT22;52812;48.960;9.108;2023-06-01T14:47:06;25.70;87.10
3086;DHT22;52812;48.960;9.108;2023-06-01T14:49:32;25.70;85.20
3086;DHT22;52812;48.960;9.108;2023-06-01T14:51:57;25.80;86.20
3086;DHT22;52812;48.960;9.108;2023-06-01T14:54:23;25.70;84.60
3086;DHT22;52812;48.960;9.108;2023-06-01T14:56:49;25.70;84.90
3086;DHT22;52812;48.960;9.108;2023-06-01T14:59:14;25.70;84.50
3086;DHT22;52812;48.960;9.108;2023-06-01T15:01:40;25.70;86.50
3086;DHT22;52812;48.960;9.108;2023-06-01T15:04:06;25.80;87.10
3086;DHT22;52812;48.960;9.108;2023-06-01T15:06:32;25.80;85.80
3086;DHT22;52812;48.960;9.108;2023-06-01T15:08:57;25.80;86.20
3086;DHT22;52812;48.960;9.108;2023-06-01T15:11:23;25.70;85.20
3086;DHT22;52812;48.960;9.108;2023-06-01T15:13:49;25.70;84.90
3086;DHT22;52812;48.960;9.108;2023-06-01T15:16:15;25.90;84.40
3086;DHT22;52812;48.960;9.108;2023-06-01T15:18:41;25.80;84.70
3086;DHT22;52812;48.960;9.108;2023-06-01T15:21:06;25.70;86.40
3086;DHT22;52812;48.960;9.108;2023-06-01T15:23:32;25.60;82.80
3086;DHT22;52812;48.960;9.108;2023-06-01T15:25:58;25.50;83.20
3086;DHT22;52812;48.960;9.108;2023-06-01T15:28:24;25.50;84.40
3086;DHT22;52812;48.960;9.108;2023-06-01T15:30:49;25.70;84.00
3086;DHT22;52812;48.960;9.108;2023-06-01T15:33:15;25.70;85.00
3086;DHT22;52812;48.960;9.108;2023-06-01T15:35:41;25.80;85.80
3086;DHT22;52812;48.960;9.108;2023-06-01T15:38:07;25.70;82.80
3086;DHT22;52812;48.960;9.108;2023-06-01T15:40:32;25.70;83.80
3086;DHT22;52812;48.960;9.108;2023-06-01T15:42:58;25.70;82.80
3086;DHT22;52812;48.960;9.108;2023-06-01T15:45:23;25.60;84.80
3086;DHT22;52812;48.960;9.108;2023-06-01T15:47:49;25.70;81.90
3086;DHT22;52812;48.960;9.108;2023-06-01T15:50:15;25.60;80.60
3086;DHT22;52812;48.960;9.108;2023-06-01T15:52:41;25.60;80.50
3086;DHT22;52812;48.960;9.108;2023-06-01T15:55:09;25.50;84.10
3086;DHT22;52812;48.960;9.108;2023-06-01T15:57:35;25.50;82.90
3086;DHT22;52812;48.960;9.108;2023-06-01T16:00:01;25.70;85.70
3086;DHT22;52812;48.960;9.108;2023-06-01T16:02:26;25.70;85.40
3086;DHT22;52812;48.960;9.108;2023-06-01T16:04:52;25.70;81.40